Time;durP1;ratioP1;P1;durP2;ratioP2;P2;SDS_P1;SDS_P2;PMS_P1;PMS_P2;Temp;Humidity;BMP_temperature;BMP_pressure;BME280_temperature;BME280_humidity;BME280_pressure;Samples;Min_cycle;Max_cycle;Signal;HPM_P1;HPM_P2
2021/01/05 00:00:22;;;;;;;46.45;19.65;;;;;;;-1.27;100.00;95337.72;1036109;28;20144;-72
2021/01/05 00:00:54;;;;;;;39.42;18.98;;;;;;;-1.26;100.00;95334.16;1039958;28;20419;-72
2021/01/05 00:01:25;;;;;;;42.38;18.80;;;;;;;-1.25;100.00;95335.81;1031925;28;20097;-71
2021/01/05 00:01:56;;;;;;;44.30;19.20;;;;;;;-1.22;100.00;95334.75;1035959;28;20018;-72
2021/01/05 00:02:27;;;;;;;48.58;20.65;;;;;;;-1.25;100.00;95335.81;1028225;28;20373;-72
2021/01/05 00:02:58;;;;;;;45.40;19.77;;;;;;;-1.20;100.00;95336.31;1031389;28;20048;-73
2021/01/05 00:03:29;;;;;;;45.15;20.20;;;;;;;-1.23;100.00;95333.09;1023873;29;20047;-71
2021/01/05 00:03:59;;;;;;;44.95;19.08;;;;;;;-1.16;100.00;95339.50;1031958;28;20109;-71
2021/01/05 00:04:33;;;;;;;42.42;18.95;;;;;;;-1.14;100.00;95338.41;1032431;28;20026;-72
2021/01/05 00:05:04;;;;;;;42.85;17.90;;;;;;;-1.12;100.00;95334.88;1019774;28;20023;-73
2021/01/05 00:05:35;;;;;;;43.40;19.50;;;;;;;-1.15;100.00;95326.34;1023986;29;20035;-71
2021/01/05 00:06:06;;;;;;;44.97;19.63;;;;;;;-1.12;100.00;95340.06;1028025;28;20184;-71
2021/01/05 00:06:36;;;;;;;42.95;18.02;;;;;;;-1.16;100.00;95336.88;1023936;28;20115;-71
2021/01/05 00:07:08;;;;;;;42.30;17.92;;;;;;;-1.10;100.00;95333.78;1019704;29;20028;-72
2021/01/05 00:07:39;;;;;;;44.05;19.63;;;;;;;-1.08;100.00;95336.28;1027891;28;20046;-72
2021/01/05 00:08:09;;;;;;;41.22;18.90;;;;;;;-1.11;100.00;95333.94;1023936;29;20025;-71
2021/01/05 00:08:40;;;;;;;41.65;18.45;;;;;;;-1.03;100.00;95334.13;1027890;28;20185;-71
2021/01/05 00:09:11;;;;;;;43.30;17.88;;;;;;;-1.11;100.00;95313.91;1027755;28;20391;-72
2021/01/05 00:09:41;;;;;;;41.83;17.63;;;;;;;-0.96;100.00;95335.31;1036001;28;20125;-72
2021/01/05 00:10:12;;;;;;;41.08;18.25;;;;;;;-1.15;100.00;95304.66;1027888;28;20041;-72
2021/01/05 00:10:43;;;;;;;40.97;18.30;;;;;;;-1.09;100.00;95335.47;1027976;28;20019;-72
2021/01/05 00:11:14;;;;;;;38.38;16.63;;;;;;;-1.09;100.00;95330.25;1027751;28;20106;-72
2021/01/05 00:12:05;;;;;;;42.20;18.02;;;;;;;-0.99;100.00;95338.19;1027921;28;20038;-71
2021/01/05 00:12:36;;;;;;;47.10;19.15;;;;;;;-1.00;100.00;95332.13;1027845;28;20022;-71
2021/01/05 00:13:06;;;;;;;42.25;18.00;;;;;;;-0.96;100.00;95332.72;1019787;29;20164;-72
2021/01/05 00:13:37;;;;;;;37.72;17.83;;;;;;;-0.96;100.00;95330.94;1019938;29;20019;-71
2021/01/05 00:14:08;;;;;;;39.80;16.95;;;;;;;-0.91;100.00;95332.34;1031839;28;20019;-72
2021/01/05 00:14:40;;;;;;;40.60;17.45;;;;;;;-0.86;100.00;95335.44;1024012;28;20432;-71
2021/01/05 00:15:11;;;;;;;39.15;16.42;;;;;;;-0.93;100.00;95327.25;1019819;29;20484;-72
2021/01/05 00:15:42;;;;;;;40.72;18.60;;;;;;;-0.97;100.00;95334.50;1031868;28;20491;-71
2021/01/05 00:16:13;;;;;;;41.33;18.98;;;;;;;-0.99;100.00;95335.56;1023890;28;20030;-72
2021/01/05 00:16:43;;;;;;;41.92;18.48;;;;;;;-0.98;100.00;95334.63;1019951;29;20019;-71
2021/01/05 00:17:17;;;;;;;42.38;18.50;;;;;;;-0.91;100.00;95334.97;1027730;28;20019;-72
2021/01/05 00:17:48;;;;;;;42.67;19.30;;;;;;;-0.95;100.00;95329.97;1035802;28;20014;-71
2021/01/05 00:18:19;;;;;;;41.60;18.23;;;;;;;-0.95;100.00;95335.19;1035965;28;20063;-72
2021/01/05 00:18:50;;;;;;;39.65;18.55;;;;;;;-0.97;100.00;95331.06;1023909;28;20019;-71
2021/01/05 00:19:21;;;;;;;43.03;18.83;;;;;;;-0.96;100.00;95330.94;1035771;28;20018;-72
2021/01/05 00:19:52;;;;;;;40.70;18.63;;;;;;;-1.08;100.00;95323.25;1035902;28;20029;-71
2021/01/05 00:20:32;;;;;;;42.72;18.58;;;;;;;-1.06;100.00;95330.00;1019921;28;20027;-72
2021/01/05 00:21:03;;;;;;;44.92;17.98;;;;;;;-1.10;100.00;95318.16;1031933;28;20029;-71
2021/01/05 00:21:34;;;;;;;39.60;17.55;;;;;;;-0.99;100.00;95331.19;1027661;28;20474;-72
2021/01/05 00:22:04;;;;;;;41.53;18.42;;;;;;;-1.00;100.00;95333.91;1023848;28;20023;-71
2021/01/05 00:22:35;;;;;;;37.90;17.40;;;;;;;-1.02;100.00;95331.41;1023805;29;20046;-72
2021/01/05 00:23:06;;;;;;;43.90;17.85;;;;;;;-1.14;100.00;95337.59;1019937;28;20114;-71
2021/01/05 00:23:37;;;;;;;44.50;18.80;;;;;;;-1.09;100.00;95334.63;1031742;28;20045;-72
2021/01/05 00:24:08;;;;;;;39.17;17.85;;;;;;;-1.19;100.00;95326.69;1027775;28;20015;-71
2021/01/05 00:24:39;;;;;;;39.50;18.42;;;;;;;-1.21;100.00;95332.03;1027819;28;20046;-71
2021/01/05 00:25:10;;;;;;;40.80;17.55;;;;;;;-1.17;100.00;95332.63;1027865;28;20543;-71
2021/01/05 00:25:41;;;;;;;40.42;18.42;;;;;;;-1.17;100.00;95333.47;1015908;29;20022;-72
2021/01/05 00:26:12;;;;;;;40.97;18.27;;;;;;;-1.16;100.00;95331.69;1027830;28;20407;-71
2021/01/05 00:26:43;;;;;;;41.88;18.17;;;;;;;-1.27;100.00;95318.66;1027839;28;20014;-71
2021/01/05 00:27:14;;;;;;;39.85;17.67;;;;;;;-1.20;100.00;95338.91;1019871;29;20028;-71
2021/01/05 00:27:45;;;;;;;43.38;17.65;;;;;;;-1.22;100.00;95314.75;1027709;28;20057;-73
2021/01/05 00:28:16;;;;;;;39.40;17.95;;;;;;;-1.12;100.00;95333.09;1027804;28;20054;-72
2021/01/05 00:28:46;;;;;;;39.65;17.92;;;;;;;-1.16;100.00;95326.47;1015941;29;20520;-72
2021/01/05 00:29:17;;;;;;;41.17;18.52;;;;;;;-1.18;100.00;95330.97;1027828;28;20164;-71
2021/01/05 00:29:48;;;;;;;39.35;17.77;;;;;;;-1.20;100.00;95335.44;1027819;28;20026;-72
2021/01/05 00:30:21;;;;;;;45.25;19.00;;;;;;;-1.19;100.00;95331.91;1027791;28;20396;-71
2021/01/05 00:30:52;;;;;;;42.97;18.73;;;;;;;-1.21;100.00;95333.81;1031320;28;20029;-71
2021/01/05 00:31:23;;;;;;;47.05;18.98;;;;;;;-1.27;100.00;95319.50;1031883;28;20034;-71
2021/01/05 00:32:14;;;;;;;36.70;17.23;;;;;;;-1.12;100.00;95327.88;1027794;28;20023;-72
2021/01/05 00:32:46;;;;;;;42.22;18.42;;;;;;;-1.11;100.00;95328.72;1023887;29;20106;-71
2021/01/05 00:33:17;;;;;;;37.30;18.48;;;;;;;-1.13;100.00;95339.25;1027853;28;20040;-71
2021/01/05 00:33:48;;;;;;;48.65;19.95;;;;;;;-1.17;100.00;95341.28;1015949;29;20500;-71
2021/01/05 00:34:18;;;;;;;46.25;19.73;;;;;;;-1.14;100.00;95335.00;1027716;28;20408;-72
2021/01/05 00:34:49;;;;;;;45.72;19.02;;;;;;;-1.21;100.00;95337.22;1023792;28;20559;-72
2021/01/05 00:35:24;;;;;;;42.03;19.25;;;;;;;-1.08;100.00;95336.28;1023814;29;20416;-71
2021/01/05 00:35:55;;;;;;;45.25;18.75;;;;;;;-1.04;100.00;95338.53;1019949;29;20023;-73
2021/01/05 00:36:26;;;;;;;44.67;18.83;;;;;;;-1.07;100.00;95343.16;1015796;29;20075;-71
2021/01/05 00:36:57;;;;;;;42.75;18.98;;;;;;;-1.10;100.00;95340.78;1015993;29;20482;-70
2021/01/05 00:37:28;;;;;;;39.00;17.15;;;;;;;-1.13;100.00;95344.47;1027923;28;20019;-71
2021/01/05 00:37:59;;;;;;;36.90;17.35;;;;;;;-1.05;100.00;95349.06;1028070;28;20082;-72
2021/01/05 00:38:29;;;;;;;43.42;18.38;;;;;;;-1.07;100.00;95337.94;1019762;29;20190;-72
2021/01/05 00:39:00;;;;;;;39.22;17.40;;;;;;;-1.02;100.00;95341.03;1027756;28;20022;-72
2021/01/05 00:39:31;;;;;;;39.25;17.33;;;;;;;-1.07;100.00;95338.75;1019937;28;20047;-71
2021/01/05 00:40:03;;;;;;;40.50;18.83;;;;;;;-1.06;100.00;95340.44;1031844;28;20078;-72
2021/01/05 00:40:34;;;;;;;36.50;17.58;;;;;;;-1.06;100.00;95348.25;1031744;28;20029;-71
2021/01/05 00:41:05;;;;;;;45.42;18.85;;;;;;;-1.04;100.00;95337.72;1035832;28;20029;-72
2021/01/05 00:41:36;;;;;;;36.75;16.35;;;;;;;-1.05;100.00;95346.47;1027752;28;20030;-71
2021/01/05 00:42:06;;;;;;;41.55;18.15;;;;;;;-1.00;100.00;95349.53;1023777;29;20149;-72
2021/01/05 00:42:37;;;;;;;37.28;17.90;;;;;;;-1.24;100.00;95310.59;1015745;29;20024;-71
2021/01/05 00:43:08;;;;;;;43.83;18.70;;;;;;;-1.16;100.00;95334.28;1019903;29;20031;-71
2021/01/05 00:43:39;;;;;;;38.63;17.75;;;;;;;-1.03;100.00;95349.78;1023818;28;20470;-71
2021/01/05 00:44:10;;;;;;;38.67;18.38;;;;;;;-1.14;100.00;95342.81;1023895;29;20027;-72
2021/01/05 00:44:41;;;;;;;38.60;17.65;;;;;;;-1.08;100.00;95349.31;1019624;29;20525;-72
2021/01/05 00:45:18;;;;;;;39.58;18.83;;;;;;;-1.02;100.00;95351.44;1027706;28;20019;-72
2021/01/05 00:45:49;;;;;;;35.90;17.17;;;;;;;-1.10;100.00;95341.59;1023914;29;20147;-71
2021/01/05 00:46:20;;;;;;;36.95;18.52;;;;;;;-1.07;100.00;95349.19;1027644;28;20027;-71
2021/01/05 00:46:51;;;;;;;35.47;17.08;;;;;;;-1.26;100.00;95326.34;1035703;28;20099;-72
2021/01/05 00:47:22;;;;;;;38.83;17.60;;;;;;;-1.03;100.00;95360.19;1019824;29;20121;-72
2021/01/05 00:47:53;;;;;;;36.05;16.58;;;;;;;-1.19;100.00;95344.94;1027780;28;20085;-71
2021/01/05 00:48:23;;;;;;;37.45;18.05;;;;;;;-1.15;100.00;95360.22;1027732;28;20495;-72
2021/01/05 00:48:54;;;;;;;36.28;17.23;;;;;;;-1.25;100.00;95345.44;1031647;28;20052;-71
2021/01/05 00:49:25;;;;;;;39.47;17.60;;;;;;;-1.18;100.00;95351.81;1031865;28;20027;-71
2021/01/05 00:49:56;;;;;;;39.05;16.95;;;;;;;-1.22;100.00;95346.00;1019845;28;20058;-71
2021/01/05 00:50:27;;;;;;;39.20;17.92;;;;;;;-1.22;100.00;95350.38;1035795;28;20026;-72
2021/01/05 00:50:58;;;;;;;40.83;18.52;;;;;;;-1.17;100.00;95364.72;1015714;29;20024;-71
2021/01/05 00:51:29;;;;;;;40.58;17.02;;;;;;;-1.20;100.00;95353.69;1023807;28;20047;-71
2021/01/05 00:51:59;;;;;;;44.42;18.05;;;;;;;-1.15;100.00;95367.19;1031769;28;20106;-71
2021/01/05 00:52:31;;;;;;;40.92;18.55;;;;;;;-1.12;100.00;95363.53;1027646;28;20034;-72
2021/01/05 00:53:02;;;;;;;42.17;18.80;;;;;;;-1.09;100.00;95363.28;1019723;29;20035;-72
2021/01/05 00:53:33;;;;;;;37.17;17.08;;;;;;;-1.11;100.00;95363.41;1035800;28;20448;-71
2021/01/05 00:54:04;;;;;;;37.30;17.00;;;;;;;-1.04;100.00;95361.97;1031780;28;20073;-71
2021/01/05 00:54:35;;;;;;;37.55;17.80;;;;;;;-1.18;100.00;95365.66;1023749;28;20043;-72
2021/01/05 00:55:07;;;;;;;41.45;17.60;;;;;;;-1.21;100.00;95357.25;1027636;28;20041;-71
2021/01/05 00:55:37;;;;;;;38.60;17.63;;;;;;;-1.20;100.00;95364.09;1032086;28;20566;-71
2021/01/05 00:56:08;;;;;;;38.70;18.10;;;;;;;-1.21;100.00;95365.88;1023883;28;20019;-72
2021/01/05 00:56:39;;;;;;;39.95;17.88;;;;;;;-1.21;100.00;95357.25;1023855;29;20458;-73
2021/01/05 00:57:11;;;;;;;37.20;16.95;;;;;;;-1.22;100.00;95356.44;1035860;28;20022;-71
2021/01/05 00:57:42;;;;;;;42.13;18.30;;;;;;;-1.20;100.00;95343.25;1020119;28;20172;-71
2021/01/05 00:58:13;;;;;;;42.05;18.38;;;;;;;-1.09;100.00;95364.13;1027972;28;20015;-71
2021/01/05 00:58:44;;;;;;;38.53;17.92;;;;;;;-1.11;100.00;95358.19;1027990;28;20015;-73
2021/01/05 00:59:15;;;;;;;37.58;17.20;;;;;;;-1.13;100.00;95357.50;1019893;28;20067;-71
2021/01/05 00:59:46;;;;;;;36.20;18.08;;;;;;;-1.16;100.00;95358.53;1032061;28;20028;-70
2021/01/05 01:00:20;;;;;;;37.10;17.60;;;;;;;-1.22;100.00;95355.59;1027931;28;20130;-71
2021/01/05 01:00:51;;;;;;;39.65;17.63;;;;;;;-1.18;100.00;95362.22;1019941;29;20020;-71
2021/01/05 01:01:22;;;;;;;36.03;17.63;;;;;;;-1.09;100.00;95353.69;1027817;28;20056;-72
2021/01/05 01:01:54;;;;;;;37.80;17.70;;;;;;;-1.15;100.00;95356.75;1020239;29;20163;-71
2021/01/05 01:02:24;;;;;;;36.60;17.05;;;;;;;-1.12;100.00;95361.75;1035655;28;20065;-72
2021/01/05 01:02:55;;;;;;;39.33;17.75;;;;;;;-1.09;100.00;95358.09;1032378;28;20041;-72
2021/01/05 01:03:26;;;;;;;35.38;17.15;;;;;;;-1.07;100.00;95357.00;1028157;28;20038;-73
2021/01/05 01:03:57;;;;;;;39.88;17.58;;;;;;;-1.09;100.00;95355.47;1028467;28;20498;-71
2021/01/05 01:04:28;;;;;;;39.05;17.80;;;;;;;-1.20;100.00;95338.91;1031753;28;20022;-73
2021/01/05 01:04:59;;;;;;;37.80;17.40;;;;;;;-1.16;100.00;95344.69;1027664;28;20113;-71
2021/01/05 01:05:29;;;;;;;39.65;18.55;;;;;;;-1.06;100.00;95357.81;1039624;28;20025;-72
2021/01/05 01:06:00;;;;;;;35.03;16.67;;;;;;;-1.07;100.00;95356.19;1043968;28;20363;-71
2021/01/05 01:06:31;;;;;;;37.47;18.25;;;;;;;-1.07;100.00;95358.78;1027732;28;20023;-72
2021/01/05 01:07:03;;;;;;;35.53;17.55;;;;;;;-1.06;100.00;95358.66;1035778;28;20057;-71
2021/01/05 01:07:34;;;;;;;38.08;17.58;;;;;;;-1.06;100.00;95352.63;1039670;28;20033;-72
2021/01/05 01:08:05;;;;;;;35.13;16.05;;;;;;;-1.08;100.00;95349.31;1035720;28;20025;-71
2021/01/05 01:08:35;;;;;;;37.95;17.98;;;;;;;-1.02;100.00;95357.47;1031683;28;20019;-72
2021/01/05 01:09:06;;;;;;;39.33;17.10;;;;;;;-1.14;100.00;95345.41;1039965;28;20187;-72
2021/01/05 01:09:37;;;;;;;38.28;17.65;;;;;;;-1.11;100.00;95354.78;1031478;28;20501;-72
2021/01/05 01:10:09;;;;;;;47.47;17.88;;;;;;;-1.08;100.00;95352.75;1035734;28;20033;-72
2021/01/05 01:10:39;;;;;;;39.70;17.63;;;;;;;-1.06;100.00;95360.44;1035795;28;20031;-72
2021/01/05 01:11:10;;;;;;;35.25;15.98;;;;;;;-1.03;100.00;95357.59;1027700;28;20029;-72
2021/01/05 01:12:11;;;;;;;36.15;17.33;;;;;;;-1.09;100.00;95358.91;1031531;28;20030;-72
2021/01/05 01:12:42;;;;;;;35.13;16.42;;;;;;;-1.04;100.00;95359.38;1036037;28;20110;-71
2021/01/05 01:13:13;;;;;;;38.70;16.35;;;;;;;-1.01;100.00;95363.50;1027673;28;20022;-72
2021/01/05 01:13:45;;;;;;;36.55;17.17;;;;;;;-1.04;100.00;95359.38;1035595;28;20017;-71
2021/01/05 01:14:16;;;;;;;37.95;18.20;;;;;;;-1.14;100.00;95350.63;1031648;28;20029;-71
2021/01/05 01:14:48;;;;;;;33.63;17.13;;;;;;;-1.22;100.00;95345.16;1031695;28;20037;-71
2021/01/05 01:15:18;;;;;;;36.72;16.95;;;;;;;-1.07;100.00;95358.78;1031851;28;20500;-71
2021/01/05 01:15:49;;;;;;;38.35;16.83;;;;;;;-1.07;100.00;95357.00;1027450;28;20023;-72
2021/01/05 01:16:20;;;;;;;36.65;17.83;;;;;;;-1.10;100.00;95357.22;1031721;28;20030;-71
2021/01/05 01:16:51;;;;;;;38.28;17.23;;;;;;;-1.19;100.00;95353.56;1035791;28;20022;-71
2021/01/05 01:17:23;;;;;;;33.42;17.40;;;;;;;-1.21;100.00;95367.66;1031751;28;20019;-71
2021/01/05 01:17:54;;;;;;;41.45;18.15;;;;;;;-1.18;100.00;95347.44;1035712;28;20033;-72
2021/01/05 01:18:25;;;;;;;37.13;17.38;;;;;;;-1.10;100.00;95359.03;1035695;28;20053;-71
2021/01/05 01:18:56;;;;;;;36.42;17.33;;;;;;;-1.14;100.00;95359.25;1035770;28;20022;-71
2021/01/05 01:19:27;;;;;;;34.10;17.05;;;;;;;-1.13;100.00;95354.88;1023714;29;20086;-71
2021/01/05 01:19:58;;;;;;;40.47;18.27;;;;;;;-1.15;100.00;95360.22;1027540;28;20074;-71
2021/01/05 01:20:30;;;;;;;37.67;17.92;;;;;;;-1.23;100.00;95356.53;1031736;28;20482;-71
2021/01/05 01:21:02;;;;;;;36.08;17.85;;;;;;;-1.17;100.00;95363.88;1027744;28;20097;-72
2021/01/05 01:21:33;;;;;;;37.10;17.08;;;;;;;-1.20;100.00;95351.94;1027692;28;20486;-71
2021/01/05 01:22:04;;;;;;;37.42;17.30;;;;;;;-1.15;100.00;95359.38;1027568;28;20082;-72
2021/01/05 01:22:35;;;;;;;37.45;19.02;;;;;;;-1.19;100.00;95356.16;1035668;28;20026;-71
2021/01/05 01:23:05;;;;;;;36.80;17.35;;;;;;;-1.18;100.00;95359.63;1031813;28;20042;-71
2021/01/05 01:23:36;;;;;;;45.83;19.17;;;;;;;-1.23;100.00;95359.97;1035725;28;20022;-71
2021/01/05 01:24:07;;;;;;;36.75;16.90;;;;;;;-1.20;100.00;95359.75;1031463;28;20088;-72
2021/01/05 01:24:39;;;;;;;39.05;17.85;;;;;;;-1.19;100.00;95357.97;1023649;29;20050;-72
2021/01/05 01:25:10;;;;;;;36.60;17.23;;;;;;;-1.19;100.00;95352.75;1039837;28;20020;-71
2021/01/05 01:25:41;;;;;;;40.50;17.73;;;;;;;-1.18;100.00;95344.81;1039808;28;20542;-71
2021/01/05 01:26:12;;;;;;;38.28;17.65;;;;;;;-1.17;100.00;95354.31;1039630;28;20100;-72
2021/01/05 01:26:42;;;;;;;40.83;18.10;;;;;;;-1.19;100.00;95340.53;1031483;28;20022;-71
2021/01/05 01:27:13;;;;;;;36.83;17.98;;;;;;;-1.03;100.00;95360.19;1035704;28;20034;-71
2021/01/05 01:27:44;;;;;;;43.20;18.80;;;;;;;-1.07;100.00;95354.41;1035769;28;20025;-71
2021/01/05 01:28:15;;;;;;;37.97;17.65;;;;;;;-1.20;100.00;95346.72;1031560;28;20100;-71
2021/01/05 01:28:47;;;;;;;37.53;18.08;;;;;;;-1.14;100.00;95351.44;1031854;28;20022;-71
2021/01/05 01:29:18;;;;;;;36.70;16.73;;;;;;;-1.17;100.00;95356.91;1031635;28;20069;-71
2021/01/05 01:29:49;;;;;;;57.80;19.02;;;;;;;-1.23;100.00;95346.94;1031721;28;20073;-71
2021/01/05 01:30:20;;;;;;;38.25;17.98;;;;;;;-1.18;100.00;95362.22;1031507;28;20077;-72
2021/01/05 01:30:51;;;;;;;40.50;18.45;;;;;;;-1.23;100.00;95356.53;1039778;28;20116;-71
2021/01/05 01:31:22;;;;;;;37.28;17.27;;;;;;;-1.21;100.00;95352.03;1043950;28;20025;-71
2021/01/05 01:31:53;;;;;;;37.25;17.40;;;;;;;-1.18;100.00;95359.63;1031678;28;20514;-72
2021/01/05 01:32:24;;;;;;;40.67;18.52;;;;;;;-1.22;100.00;95361.66;1035588;28;20064;-72
2021/01/05 01:32:54;;;;;;;37.72;18.75;;;;;;;-1.18;100.00;95357.03;1031638;28;20578;-71
2021/01/05 01:33:25;;;;;;;37.92;17.67;;;;;;;-1.20;100.00;95357.13;1039764;28;20083;-71
2021/01/05 01:33:56;;;;;;;39.63;17.92;;;;;;;-1.21;100.00;95357.25;1031655;28;20025;-71
2021/01/05 01:34:27;;;;;;;40.72;18.65;;;;;;;-1.20;100.00;95361.50;1035551;28;20021;-72
2021/01/05 01:34:58;;;;;;;43.08;17.85;;;;;;;-1.18;100.00;95362.22;1035563;28;20029;-71
2021/01/05 01:35:29;;;;;;;41.28;18.65;;;;;;;-1.13;100.00;95349.69;1035991;28;20532;-71
2021/01/05 01:35:59;;;;;;;39.15;18.33;;;;;;;-1.15;100.00;95362.81;1031667;28;20086;-71
2021/01/05 01:36:30;;;;;;;37.20;17.55;;;;;;;-1.11;100.00;95365.19;1039676;28;20045;-71
2021/01/05 01:37:06;;;;;;;38.13;17.85;;;;;;;-1.28;100.00;95341.25;1027782;28;20023;-71
2021/01/05 01:37:37;;;;;;;35.72;18.30;;;;;;;-1.17;100.00;95359.50;1035824;28;20019;-71
2021/01/05 01:38:08;;;;;;;41.30;18.95;;;;;;;-1.19;100.00;95361.38;1035823;28;20549;-71
2021/01/05 01:38:39;;;;;;;35.20;17.58;;;;;;;-1.20;100.00;95358.88;1031578;28;20018;-71
2021/01/05 01:39:10;;;;;;;39.55;18.88;;;;;;;-1.25;100.00;95361.06;1040449;28;20013;-71
2021/01/05 01:39:41;;;;;;;40.90;18.00;;;;;;;-1.36;100.00;95326.25;1040615;28;20017;-71
2021/01/05 01:40:13;;;;;;;35.10;17.38;;;;;;;-1.28;100.00;95340.44;1032496;28;20472;-71
2021/01/05 01:40:44;;;;;;;38.90;17.30;;;;;;;-1.17;100.00;95356.06;1040408;28;20260;-71
2021/01/05 01:41:15;;;;;;;35.30;18.63;;;;;;;-1.19;100.00;95357.97;1036465;28;20049;-72
2021/01/05 01:41:46;;;;;;;37.97;18.27;;;;;;;-1.23;100.00;95346.94;1032515;28;20014;-71
2021/01/05 01:42:18;;;;;;;35.42;17.60;;;;;;;-1.13;100.00;95357.50;1028530;28;20018;-72
2021/01/05 01:42:49;;;;;;;38.22;17.52;;;;;;;-1.28;100.00;95343.06;1040410;28;20485;-71
2021/01/05 01:43:20;;;;;;;38.97;19.50;;;;;;;-1.21;100.00;95355.47;1028457;28;20015;-71
2021/01/05 01:43:50;;;;;;;35.60;17.45;;;;;;;-1.20;100.00;95354.53;1032434;28;20015;-72
2021/01/05 01:44:23;;;;;;;38.95;18.10;;;;;;;-1.19;100.00;95352.75;1032457;28;20015;-73
2021/01/05 01:44:54;;;;;;;39.58;17.98;;;;;;;-1.24;100.00;95354.88;1036242;28;20018;-72
2021/01/05 01:45:25;;;;;;;35.80;16.73;;;;;;;-1.26;100.00;95354.19;1032325;28;20487;-72
2021/01/05 01:45:56;;;;;;;36.30;17.15;;;;;;;-1.30;100.00;95355.38;1036445;28;20014;-72
2021/01/05 01:46:30;;;;;;;35.53;16.67;;;;;;;-1.49;100.00;95335.94;1032547;28;20153;-72
2021/01/05 01:47:15;;;;;;;36.35;16.65;;;;;;;-1.25;100.00;95356.66;1036372;28;20025;-71
2021/01/05 01:47:46;;;;;;;34.65;16.73;;;;;;;-1.31;100.00;95351.09;1028462;28;20029;-71
2021/01/05 01:48:16;;;;;;;33.17;15.88;;;;;;;-1.26;100.00;95355.00;1040663;28;20013;-72
2021/01/05 01:48:47;;;;;;;34.80;17.33;;;;;;;-1.25;100.00;95348.03;1040562;28;20046;-71
2021/01/05 01:49:18;;;;;;;36.40;18.15;;;;;;;-1.25;100.00;95356.66;1040451;28;20390;-71
2021/01/05 01:49:51;;;;;;;34.85;17.58;;;;;;;-1.23;100.00;95351.34;1044660;28;20100;-71
2021/01/05 01:50:25;;;;;;;38.83;19.35;;;;;;;-1.21;100.00;95349.44;1036514;28;20020;-71
2021/01/05 01:50:56;;;;;;;38.10;18.15;;;;;;;-1.18;100.00;95351.81;1032481;28;20090;-72
2021/01/05 01:51:27;;;;;;;40.88;18.77;;;;;;;-1.25;100.00;95338.44;1032219;28;20032;-71
2021/01/05 01:51:57;;;;;;;37.10;18.10;;;;;;;-1.23;100.00;95351.34;1032462;28;20018;-71
2021/01/05 01:52:48;;;;;;;38.47;17.70;;;;;;;-1.27;100.00;95340.34;1036434;28;20256;-72
2021/01/05 01:53:39;;;;;;;36.05;17.58;;;;;;;-1.17;100.00;95348.25;1032143;28;20022;-72
2021/01/05 01:54:15;;;;;;;35.75;17.38;;;;;;;-1.04;100.00;95346.34;1032378;28;20113;-71
2021/01/05 01:55:06;;;;;;;35.10;16.40;;;;;;;-1.09;100.00;95353.69;1040478;28;20065;-73
2021/01/05 01:55:56;;;;;;;31.95;15.70;;;;;;;-1.07;100.00;95349.19;1032262;28;20306;-71
2021/01/05 01:56:42;;;;;;;35.58;16.98;;;;;;;-1.03;100.00;95348.03;1032407;28;20109;-71
2021/01/05 01:57:28;;;;;;;37.47;17.02;;;;;;;-1.11;100.00;95347.78;1032243;28;20571;-72
2021/01/05 01:58:14;;;;;;;34.53;16.55;;;;;;;-1.22;100.00;95345.16;1036439;28;20451;-71
2021/01/05 01:58:55;;;;;;;35.35;16.30;;;;;;;-1.17;100.00;95343.88;1040456;28;20021;-72
2021/01/05 01:59:40;;;;;;;37.92;16.65;;;;;;;-1.20;100.00;95332.84;1028262;28;20050;-73
2021/01/05 02:00:21;;;;;;;40.13;18.17;;;;;;;-1.14;100.00;95335.81;1036464;28;20320;-72
2021/01/05 02:00:52;;;;;;;34.22;16.33;;;;;;;-1.10;100.00;95339.00;1036444;28;20037;-71
2021/01/05 02:01:39;;;;;;;37.60;17.58;;;;;;;-1.14;100.00;95335.81;1028338;28;20098;-72
2021/01/05 02:02:11;;;;;;;34.95;17.13;;;;;;;-1.12;100.00;95348.72;1032022;28;20118;-72
2021/01/05 02:02:51;;;;;;;37.08;17.77;;;;;;;-1.13;100.00;95339.25;1036430;28;20025;-72
2021/01/05 02:03:28;;;;;;;36.65;16.67;;;;;;;-1.24;100.00;95327.03;1036118;28;20030;-72
2021/01/05 02:04:11;;;;;;;34.58;17.15;;;;;;;-1.18;100.00;95346.59;1032194;28;20022;-72
2021/01/05 02:04:56;;;;;;;35.58;17.05;;;;;;;-1.45;100.00;95298.28;1032384;28;20544;-72
2021/01/05 02:05:39;;;;;;;39.67;17.80;;;;;;;-1.29;100.00;95320.53;1040601;28;20044;-72
2021/01/05 02:06:14;;;;;;;37.42;17.00;;;;;;;-1.11;100.00;95345.19;1040450;28;20025;-71
2021/01/05 02:06:50;;;;;;;39.92;18.17;;;;;;;-1.25;100.00;95341.03;1040475;28;20020;-72
2021/01/05 02:07:36;;;;;;;34.63;17.38;;;;;;;-1.12;100.00;95346.09;1036638;28;20117;-72
2021/01/05 02:08:27;;;;;;;34.05;17.02;;;;;;;-1.16;100.00;95342.91;1028180;28;20062;-71
2021/01/05 02:09:12;;;;;;;32.95;16.17;;;;;;;-1.25;100.00;95329.78;1032338;28;20022;-72
2021/01/05 02:10:02;;;;;;;34.63;16.40;;;;;;;-1.22;100.00;95347.78;1024432;29;20640;-72
2021/01/05 02:10:47;;;;;;;39.35;18.05;;;;;;;-1.37;100.00;95332.38;1032325;28;20406;-71
2021/01/05 02:11:26;;;;;;;37.25;17.23;;;;;;;-1.28;100.00;95356.06;1032423;28;20015;-71
2021/01/05 02:12:04;;;;;;;39.90;17.45;;;;;;;-1.30;100.00;95334.53;1044460;28;20370;-72
2021/01/05 02:12:56;;;;;;;38.58;17.65;;;;;;;-1.27;100.00;95326.47;1036211;28;20033;-72
2021/01/05 02:13:40;;;;;;;36.45;17.75;;;;;;;-1.21;100.00;95346.84;1036318;28;20470;-71
2021/01/05 02:14:31;;;;;;;36.35;17.35;;;;;;;-1.34;100.00;95326.94;1028076;28;20408;-73
2021/01/05 02:15:07;;;;;;;34.42;15.70;;;;;;;-1.20;100.00;95343.25;1036241;28;20046;-71
2021/01/05 02:15:57;;;;;;;37.03;17.55;;;;;;;-1.21;100.00;95347.66;1032387;28;20034;-72
2021/01/05 02:16:46;;;;;;;28.75;14.65;;;;;;;-1.25;100.00;95342.81;1040332;28;20040;-71
2021/01/05 02:17:36;;;;;;;24.67;12.85;;;;;;;-1.26;100.00;95335.94;1036455;28;20541;-71
2021/01/05 02:18:26;;;;;;;26.65;13.38;;;;;;;-1.30;100.00;95337.97;1028199;28;20042;-72
2021/01/05 02:19:09;;;;;;;27.98;13.48;;;;;;;-1.21;100.00;95346.84;1044600;28;20143;-71
2021/01/05 02:19:45;;;;;;;27.65;13.55;;;;;;;-1.23;100.00;95338.31;1032351;28;20038;-71
2021/01/05 02:20:27;;;;;;;26.65;12.68;;;;;;;-1.21;100.00;95345.06;1032344;28;20025;-72
2021/01/05 02:21:01;;;;;;;23.70;12.73;;;;;;;-1.13;100.00;95347.06;1044618;28;20017;-71
2021/01/05 02:21:36;;;;;;;24.45;12.23;;;;;;;-1.21;100.00;95337.22;1032222;28;20010;-72
2021/01/05 02:22:17;;;;;;;25.63;12.80;;;;;;;-1.14;100.00;95353.22;1040397;28;20017;-72
2021/01/05 02:23:08;;;;;;;27.25;13.15;;;;;;;-1.19;100.00;95347.53;1032294;28;20042;-72
2021/01/05 02:23:52;;;;;;;24.30;12.15;;;;;;;-1.16;100.00;95349.91;1032297;28;20097;-71
2021/01/05 02:24:26;;;;;;;24.30;12.70;;;;;;;-1.23;100.00;95354.75;1032189;28;20350;-72
2021/01/05 02:25:17;;;;;;;23.23;12.13;;;;;;;-1.36;100.00;95336.66;1032120;28;20253;-71
2021/01/05 02:25:59;;;;;;;22.55;11.65;;;;;;;-1.23;100.00;95349.56;1036411;28;20070;-71
2021/01/05 02:26:40;;;;;;;24.42;11.23;;;;;;;-1.21;100.00;95341.63;1024216;28;20012;-72
2021/01/05 02:27:11;;;;;;;24.30;12.18;;;;;;;-1.16;100.00;95350.72;1036258;28;20423;-71
2021/01/05 02:27:45;;;;;;;25.17;12.55;;;;;;;-1.33;100.00;95320.78;1036421;28;20223;-71
2021/01/05 02:28:16;;;;;;;26.48;11.50;;;;;;;-1.22;100.00;95351.22;1032232;28;20040;-72
2021/01/05 02:28:50;;;;;;;23.83;11.90;;;;;;;-1.26;100.00;95334.16;1032086;28;20104;-71
2021/01/05 02:29:24;;;;;;;24.98;11.98;;;;;;;-1.18;100.00;95341.41;1040442;28;20028;-72
2021/01/05 02:29:57;;;;;;;24.77;12.20;;;;;;;-1.28;100.00;95335.25;1032307;28;20261;-71
2021/01/05 02:30:34;;;;;;;24.73;12.18;;;;;;;-1.20;100.00;95338.06;1036557;28;20022;-71
2021/01/05 02:31:24;;;;;;;24.52;12.40;;;;;;;-1.22;100.00;95337.34;1032294;28;20018;-70
2021/01/05 02:32:02;;;;;;;;;;;;;;;-1.15;100.00;95341.13;1028776;28;20015;-71
2021/01/05 02:32:45;;;;;;;22.83;11.07;;;;;;;-1.17;100.00;95348.25;1024138;29;19993;-72
2021/01/05 02:33:29;;;;;;;24.65;11.88;;;;;;;-1.17;100.00;95346.50;1036266;28;20113;-72
2021/01/05 02:34:05;;;;;;;24.00;11.90;;;;;;;-1.21;100.00;95342.44;1032146;28;20018;-71